sensor_id;sensor_type;location;lat;lon;timestamp;P1;durP1;ratioP1;P2;durP2;ratioP2
17890;SDS011;9071;48.220;14.480;2022-08-02T00:00:02;4.05;;;2.90;;
17890;SDS011;9071;48.220;14.480;2022-08-02T00:05:07;3.08;;;2.75;;
17890;SDS011;9071;48.220;14.480;2022-08-02T00:10:11;3.13;;;2.75;;
17890;SDS011;9071;48.220;14.480;2022-08-02T00:15:13;4.75;;;2.80;;
17890;SDS011;9071;48.220;14.480;2022-08-02T00:20:15;3.60;;;2.85;;
17890;SDS011;9071;48.220;14.480;2022-08-02T00:25:19;3.88;;;3.20;;
17890;SDS011;9071;48.220;14.480;2022-08-02T00:30:21;3.55;;;3.25;;
17890;SDS011;9071;48.220;14.480;2022-08-02T00:35:23;5.85;;;3.75;;
17890;SDS011;9071;48.220;14.480;2022-08-02T00:40:26;3.38;;;3.03;;
17890;SDS011;9071;48.220;14.480;2022-08-02T00:45:28;4.65;;;3.00;;
17890;SDS011;9071;48.220;14.480;2022-08-02T00:50:31;5.60;;;3.53;;
17890;SDS011;9071;48.220;14.480;2022-08-02T00:55:35;7.50;;;3.83;;
17890;SDS011;9071;48.220;14.480;2022-08-02T01:00:38;5.43;;;3.78;;
17890;SDS011;9071;48.220;14.480;2022-08-02T01:05:40;5.28;;;4.20;;
17890;SDS011;9071;48.220;14.480;2022-08-02T01:10:45;4.85;;;3.80;;
17890;SDS011;9071;48.220;14.480;2022-08-02T01:15:49;4.60;;;3.70;;
17890;SDS011;9071;48.220;14.480;2022-08-02T01:21:00;5.20;;;4.47;;
17890;SDS011;9071;48.220;14.480;2022-08-02T01:26:22;4.15;;;3.75;;
17890;SDS011;9071;48.220;14.480;2022-08-02T01:31:40;4.65;;;4.03;;
17890;SDS011;9071;48.220;14.480;2022-08-02T01:36:48;5.80;;;3.80;;
17890;SDS011;9071;48.220;14.480;2022-08-02T01:41:56;6.07;;;3.67;;
17890;SDS011;9071;48.220;14.480;2022-08-02T01:47:02;4.85;;;3.72;;
17890;SDS011;9071;48.220;14.480;2022-08-02T01:52:06;6.30;;;4.00;;
17890;SDS011;9071;48.220;14.480;2022-08-02T01:57:22;5.25;;;4.63;;
17890;SDS011;9071;48.220;14.480;2022-08-02T02:02:27;6.18;;;4.00;;
17890;SDS011;9071;48.220;14.480;2022-08-02T02:07:31;4.20;;;3.75;;
17890;SDS011;9071;48.220;14.480;2022-08-02T02:12:35;7.45;;;4.03;;
17890;SDS011;9071;48.220;14.480;2022-08-02T02:17:42;7.70;;;3.85;;
17890;SDS011;9071;48.220;14.480;2022-08-02T02:22:46;4.43;;;4.00;;
17890;SDS011;9071;48.220;14.480;2022-08-02T02:27:51;5.63;;;3.63;;
17890;SDS011;9071;48.220;14.480;2022-08-02T02:32:59;5.85;;;3.30;;
17890;SDS011;9071;48.220;14.480;2022-08-02T02:38:04;4.05;;;3.08;;
17890;SDS011;9071;48.220;14.480;2022-08-02T02:43:10;4.13;;;3.13;;
17890;SDS011;9071;48.220;14.480;2022-08-02T02:48:15;4.05;;;3.42;;
17890;SDS011;9071;48.220;14.480;2022-08-02T02:53:18;9.85;;;4.47;;
17890;SDS011;9071;48.220;14.480;2022-08-02T02:58:21;7.00;;;3.90;;
17890;SDS011;9071;48.220;14.480;2022-08-02T03:03:25;5.75;;;3.50;;
17890;SDS011;9071;48.220;14.480;2022-08-02T03:08:27;5.47;;;3.70;;
17890;SDS011;9071;48.220;14.480;2022-08-02T03:13:30;6.05;;;3.63;;
17890;SDS011;9071;48.220;14.480;2022-08-02T03:18:34;5.95;;;3.78;;
17890;SDS011;9071;48.220;14.480;2022-08-02T03:23:38;4.78;;;3.80;;
17890;SDS011;9071;48.220;14.480;2022-08-02T03:28:41;4.00;;;3.60;;
17890;SDS011;9071;48.220;14.480;2022-08-02T03:33:45;8.57;;;3.58;;
17890;SDS011;9071;48.220;14.480;2022-08-02T03:38:47;5.57;;;3.88;;
17890;SDS011;9071;48.220;14.480;2022-08-02T03:43:51;6.25;;;3.90;;
17890;SDS011;9071;48.220;14.480;2022-08-02T03:48:55;6.63;;;4.10;;
17890;SDS011;9071;48.220;14.480;2022-08-02T03:53:58;5.20;;;3.67;;
17890;SDS011;9071;48.220;14.480;2022-08-02T03:59:09;4.65;;;4.15;;
17890;SDS011;9071;48.220;14.480;2022-08-02T04:04:13;4.40;;;4.00;;
17890;SDS011;9071;48.220;14.480;2022-08-02T04:09:16;4.15;;;3.60;;
17890;SDS011;9071;48.220;14.480;2022-08-02T04:14:18;5.72;;;3.75;;
17890;SDS011;9071;48.220;14.480;2022-08-02T04:19:23;6.50;;;3.78;;
17890;SDS011;9071;48.220;14.480;2022-08-02T04:24:30;6.45;;;3.58;;
17890;SDS011;9071;48.220;14.480;2022-08-02T04:29:37;5.55;;;3.25;;
17890;SDS011;9071;48.220;14.480;2022-08-02T04:34:42;4.38;;;3.55;;
17890;SDS011;9071;48.220;14.480;2022-08-02T04:39:45;8.32;;;4.30;;
17890;SDS011;9071;48.220;14.480;2022-08-02T04:44:47;6.85;;;3.78;;
17890;SDS011;9071;48.220;14.480;2022-08-02T04:49:51;4.90;;;3.85;;
17890;SDS011;9071;48.220;14.480;2022-08-02T04:54:54;4.80;;;3.70;;
17890;SDS011;9071;48.220;14.480;2022-08-02T04:59:56;4.25;;;3.55;;
17890;SDS011;9071;48.220;14.480;2022-08-02T05:04:59;4.35;;;3.70;;
17890;SDS011;9071;48.220;14.480;2022-08-02T05:10:02;4.78;;;3.42;;
17890;SDS011;9071;48.220;14.480;2022-08-02T05:15:05;6.75;;;3.38;;
17890;SDS011;9071;48.220;14.480;2022-08-02T05:20:10;4.72;;;3.38;;
17890;SDS011;9071;48.220;14.480;2022-08-02T05:25:13;3.85;;;3.00;;
17890;SDS011;9071;48.220;14.480;2022-08-02T05:30:15;4.40;;;3.03;;
17890;SDS011;9071;48.220;14.480;2022-08-02T05:35:19;5.47;;;2.97;;
17890;SDS011;9071;48.220;14.480;2022-08-02T05:40:24;4.50;;;3.03;;
17890;SDS011;9071;48.220;14.480;2022-08-02T05:45:26;3.47;;;2.95;;
17890;SDS011;9071;48.220;14.480;2022-08-02T05:50:29;5.45;;;4.03;;
17890;SDS011;9071;48.220;14.480;2022-08-02T05:55:33;4.45;;;3.45;;
17890;SDS011;9071;48.220;14.480;2022-08-02T06:00:39;6.03;;;3.60;;
17890;SDS011;9071;48.220;14.480;2022-08-02T06:05:47;5.38;;;3.90;;
17890;SDS011;9071;48.220;14.480;2022-08-02T06:10:53;5.20;;;3.97;;
17890;SDS011;9071;48.220;14.480;2022-08-02T06:15:56;4.50;;;3.30;;
17890;SDS011;9071;48.220;14.480;2022-08-02T06:21:02;3.92;;;3.15;;
17890;SDS011;9071;48.220;14.480;2022-08-02T06:26:08;4.40;;;2.67;;
17890;SDS011;9071;48.220;14.480;2022-08-02T06:31:12;3.15;;;2.42;;
17890;SDS011;9071;48.220;14.480;2022-08-02T06:36:18;2.28;;;1.92;;
17890;SDS011;9071;48.220;14.480;2022-08-02T06:41:27;2.42;;;1.63;;
17890;SDS011;9071;48.220;14.480;2022-08-02T06:46:32;1.73;;;1.30;;
17890;SDS011;9071;48.220;14.480;2022-08-02T06:51:35;2.42;;;1.52;;
17890;SDS011;9071;48.220;14.480;2022-08-02T06:56:37;1.80;;;1.70;;
17890;SDS011;9071;48.220;14.480;2022-08-02T07:01:39;1.90;;;1.70;;
17890;SDS011;9071;48.220;14.480;2022-08-02T07:06:43;1.40;;;1.23;;
17890;SDS011;9071;48.220;14.480;2022-08-02T07:11:45;1.30;;;1.20;;
17890;SDS011;9071;48.220;14.480;2022-08-02T07:16:47;15.93;;;2.53;;
17890;SDS011;9071;48.220;14.480;2022-08-02T07:21:51;20.30;;;3.40;;
17890;SDS011;9071;48.220;14.480;2022-08-02T07:26:53;7.47;;;2.10;;
17890;SDS011;9071;48.220;14.480;2022-08-02T07:31:55;4.18;;;2.75;;
17890;SDS011;9071;48.220;14.480;2022-08-02T07:36:58;4.25;;;2.67;;
17890;SDS011;9071;48.220;14.480;2022-08-02T07:42:01;3.15;;;2.55;;
17890;SDS011;9071;48.220;14.480;2022-08-02T07:47:03;9.52;;;2.65;;
17890;SDS011;9071;48.220;14.480;2022-08-02T07:52:07;4.93;;;3.15;;
17890;SDS011;9071;48.220;14.480;2022-08-02T07:57:09;3.30;;;3.03;;
17890;SDS011;9071;48.220;14.480;2022-08-02T08:02:11;3.33;;;3.00;;
17890;SDS011;9071;48.220;14.480;2022-08-02T08:07:15;4.40;;;3.13;;
17890;SDS011;9071;48.220;14.480;2022-08-02T08:12:17;3.97;;;2.75;;
17890;SDS011;9071;48.220;14.480;2022-08-02T08:17:20;3.55;;;2.60;;
17890;SDS011;9071;48.220;14.480;2022-08-02T08:22:23;4.28;;;3.35;;
17890;SDS011;9071;48.220;14.480;2022-08-02T08:27:25;3.28;;;2.97;;
17890;SDS011;9071;48.220;14.480;2022-08-02T08:32:27;3.30;;;3.00;;
17890;SDS011;9071;48.220;14.480;2022-08-02T08:37:33;3.45;;;3.15;;
17890;SDS011;9071;48.220;14.480;2022-08-02T08:42:36;4.70;;;3.75;;
17890;SDS011;9071;48.220;14.480;2022-08-02T08:47:40;4.15;;;3.20;;
17890;SDS011;9071;48.220;14.480;2022-08-02T08:52:46;3.33;;;3.03;;
17890;SDS011;9071;48.220;14.480;2022-08-02T08:57:50;3.70;;;2.42;;
17890;SDS011;9071;48.220;14.480;2022-08-02T09:02:53;2.58;;;2.10;;
17890;SDS011;9071;48.220;14.480;2022-08-02T09:07:56;2.70;;;2.45;;
17890;SDS011;9071;48.220;14.480;2022-08-02T09:13:05;3.35;;;2.35;;
17890;SDS011;9071;48.220;14.480;2022-08-02T09:18:12;3.38;;;1.90;;
17890;SDS011;9071;48.220;14.480;2022-08-02T09:23:15;3.15;;;2.03;;
17890;SDS011;9071;48.220;14.480;2022-08-02T09:28:18;6.00;;;2.10;;
17890;SDS011;9071;48.220;14.480;2022-08-02T09:33:24;2.03;;;1.90;;
17890;SDS011;9071;48.220;14.480;2022-08-02T09:38:28;3.25;;;1.77;;
17890;SDS011;9071;48.220;14.480;2022-08-02T09:43:34;2.35;;;1.67;;
17890;SDS011;9071;48.220;14.480;2022-08-02T09:48:50;1.67;;;1.58;;
17890;SDS011;9071;48.220;14.480;2022-08-02T09:53:56;2.33;;;1.48;;
17890;SDS011;9071;48.220;14.480;2022-08-02T09:58:59;2.17;;;1.60;;
17890;SDS011;9071;48.220;14.480;2022-08-02T10:04:08;5.55;;;2.20;;
17890;SDS011;9071;48.220;14.480;2022-08-02T10:09:12;1.80;;;1.70;;
17890;SDS011;9071;48.220;14.480;2022-08-02T10:14:14;2.58;;;1.60;;
17890;SDS011;9071;48.220;14.480;2022-08-02T10:19:19;2.63;;;1.50;;
17890;SDS011;9071;48.220;14.480;2022-08-02T10:24:23;4.05;;;1.80;;
17890;SDS011;9071;48.220;14.480;2022-08-02T10:29:29;2.75;;;1.48;;
17890;SDS011;9071;48.220;14.480;2022-08-02T10:34:35;2.72;;;1.42;;
17890;SDS011;9071;48.220;14.480;2022-08-02T10:39:43;6.88;;;3.95;;
17890;SDS011;9071;48.220;14.480;2022-08-02T10:44:46;2.17;;;1.98;;
17890;SDS011;9071;48.220;14.480;2022-08-02T10:49:48;2.30;;;1.40;;
17890;SDS011;9071;48.220;14.480;2022-08-02T10:54:57;4.22;;;1.50;;
17890;SDS011;9071;48.220;14.480;2022-08-02T11:00:00;2.35;;;1.70;;
17890;SDS011;9071;48.220;14.480;2022-08-02T11:05:05;2.90;;;1.60;;
17890;SDS011;9071;48.220;14.480;2022-08-02T11:10:28;1.80;;;1.70;;
17890;SDS011;9071;48.220;14.480;2022-08-02T11:21:19;2.65;;;1.90;;
17890;SDS011;9071;48.220;14.480;2022-08-02T11:26:41;1.92;;;1.63;;
17890;SDS011;9071;48.220;14.480;2022-08-02T11:31:45;3.08;;;1.90;;
17890;SDS011;9071;48.220;14.480;2022-08-02T11:36:48;3.30;;;1.83;;
17890;SDS011;9071;48.220;14.480;2022-08-02T11:41:54;2.22;;;2.03;;
17890;SDS011;9071;48.220;14.480;2022-08-02T11:46:57;3.28;;;2.00;;
17890;SDS011;9071;48.220;14.480;2022-08-02T11:52:02;2.90;;;1.70;;
17890;SDS011;9071;48.220;14.480;2022-08-02T11:57:11;1.90;;;1.70;;
17890;SDS011;9071;48.220;14.480;2022-08-02T12:02:15;5.20;;;1.67;;
17890;SDS011;9071;48.220;14.480;2022-08-02T12:07:18;1.63;;;1.45;;
17890;SDS011;9071;48.220;14.480;2022-08-02T12:12:28;2.45;;;1.98;;
17890;SDS011;9071;48.220;14.480;2022-08-02T12:17:30;2.50;;;1.50;;
17890;SDS011;9071;48.220;14.480;2022-08-02T12:22:49;2.28;;;1.65;;
17890;SDS011;9071;48.220;14.480;2022-08-02T12:27:53;1.70;;;1.40;;
17890;SDS011;9071;48.220;14.480;2022-08-02T12:33:14;2.63;;;1.70;;
17890;SDS011;9071;48.220;14.480;2022-08-02T12:38:16;5.00;;;1.45;;
17890;SDS011;9071;48.220;14.480;2022-08-02T12:43:22;2.53;;;1.60;;
17890;SDS011;9071;48.220;14.480;2022-08-02T12:48:31;2.40;;;1.42;;
17890;SDS011;9071;48.220;14.480;2022-08-02T12:53:35;2.90;;;1.20;;
17890;SDS011;9071;48.220;14.480;2022-08-02T12:58:46;1.55;;;1.45;;
17890;SDS011;9071;48.220;14.480;2022-08-02T13:03:49;2.38;;;1.48;;
17890;SDS011;9071;48.220;14.480;2022-08-02T13:08:52;1.52;;;1.30;;
17890;SDS011;9071;48.220;14.480;2022-08-02T13:13:56;1.65;;;1.45;;
17890;SDS011;9071;48.220;14.480;2022-08-02T13:18:58;4.70;;;1.45;;
17890;SDS011;9071;48.220;14.480;2022-08-02T13:24:00;1.30;;;1.20;;
17890;SDS011;9071;48.220;14.480;2022-08-02T13:29:03;2.03;;;1.27;;
17890;SDS011;9071;48.220;14.480;2022-08-02T13:34:06;1.65;;;1.23;;
17890;SDS011;9071;48.220;14.480;2022-08-02T13:39:08;1.30;;;1.20;;
17890;SDS011;9071;48.220;14.480;2022-08-02T13:44:13;1.77;;;1.35;;
17890;SDS011;9071;48.220;14.480;2022-08-02T13:49:15;3.30;;;1.30;;
17890;SDS011;9071;48.220;14.480;2022-08-02T13:54:17;2.08;;;1.25;;
17890;SDS011;9071;48.220;14.480;2022-08-02T13:59:21;3.35;;;1.52;;
17890;SDS011;9071;48.220;14.480;2022-08-02T14:04:23;7.03;;;1.80;;
17890;SDS011;9071;48.220;14.480;2022-08-02T14:09:25;2.78;;;1.90;;
17890;SDS011;9071;48.220;14.480;2022-08-02T14:14:30;2.13;;;1.83;;
17890;SDS011;9071;48.220;14.480;2022-08-02T14:19:32;3.85;;;1.90;;
17890;SDS011;9071;48.220;14.480;2022-08-02T14:24:35;3.13;;;1.63;;
17890;SDS011;9071;48.220;14.480;2022-08-02T14:29:38;3.67;;;1.80;;
17890;SDS011;9071;48.220;14.480;2022-08-02T14:34:40;3.30;;;1.98;;
17890;SDS011;9071;48.220;14.480;2022-08-02T14:39:43;2.67;;;2.10;;
17890;SDS011;9071;48.220;14.480;2022-08-02T14:44:46;4.10;;;1.60;;
17890;SDS011;9071;48.220;14.480;2022-08-02T14:49:48;2.70;;;1.70;;
17890;SDS011;9071;48.220;14.480;2022-08-02T14:54:51;2.42;;;1.83;;
17890;SDS011;9071;48.220;14.480;2022-08-02T14:59:54;6.57;;;2.00;;
17890;SDS011;9071;48.220;14.480;2022-08-02T15:04:59;3.45;;;1.90;;
17890;SDS011;9071;48.220;14.480;2022-08-02T15:10:01;3.05;;;2.00;;
17890;SDS011;9071;48.220;14.480;2022-08-02T15:15:06;2.75;;;1.90;;
17890;SDS011;9071;48.220;14.480;2022-08-02T15:20:09;2.65;;;1.95;;
17890;SDS011;9071;48.220;14.480;2022-08-02T15:25:11;6.45;;;1.95;;
17890;SDS011;9071;48.220;14.480;2022-08-02T15:30:15;9.90;;;1.92;;
17890;SDS011;9071;48.220;14.480;2022-08-02T15:35:18;2.53;;;1.52;;
17890;SDS011;9071;48.220;14.480;2022-08-02T15:40:20;4.63;;;1.42;;
17890;SDS011;9071;48.220;14.480;2022-08-02T15:45:24;4.13;;;1.73;;
17890;SDS011;9071;48.220;14.480;2022-08-02T15:50:27;5.50;;;1.60;;
17890;SDS011;9071;48.220;14.480;2022-08-02T15:55:29;2.47;;;1.67;;
17890;SDS011;9071;48.220;14.480;2022-08-02T16:00:32;2.67;;;1.90;;
17890;SDS011;9071;48.220;14.480;2022-08-02T16:05:35;3.40;;;1.70;;
17890;SDS011;9071;48.220;14.480;2022-08-02T16:10:37;2.70;;;1.27;;
17890;SDS011;9071;48.220;14.480;2022-08-02T16:15:41;1.92;;;1.63;;
17890;SDS011;9071;48.220;14.480;2022-08-02T16:20:43;2.88;;;1.80;;
17890;SDS011;9071;48.220;14.480;2022-08-02T16:25:45;2.55;;;2.00;;
17890;SDS011;9071;48.220;14.480;2022-08-02T16:30:49;2.88;;;2.10;;
17890;SDS011;9071;48.220;14.480;2022-08-02T16:35:51;3.35;;;2.28;;
17890;SDS011;9071;48.220;14.480;2022-08-02T16:40:54;2.30;;;2.10;;
17890;SDS011;9071;48.220;14.480;2022-08-02T16:45:57;4.00;;;2.38;;
17890;SDS011;9071;48.220;14.480;2022-08-02T16:50:59;2.13;;;1.90;;
17890;SDS011;9071;48.220;14.480;2022-08-02T16:56:02;11.82;;;6.07;;
17890;SDS011;9071;48.220;14.480;2022-08-02T17:01:06;4.00;;;2.28;;
17890;SDS011;9071;48.220;14.480;2022-08-02T17:06:08;2.55;;;1.60;;
17890;SDS011;9071;48.220;14.480;2022-08-02T17:11:10;3.75;;;1.45;;
17890;SDS011;9071;48.220;14.480;2022-08-02T17:16:13;2.28;;;1.60;;
17890;SDS011;9071;48.220;14.480;2022-08-02T17:21:15;2.42;;;1.52;;
17890;SDS011;9071;48.220;14.480;2022-08-02T17:26:17;1.75;;;1.50;;
17890;SDS011;9071;48.220;14.480;2022-08-02T17:31:21;2.45;;;1.70;;
17890;SDS011;9071;48.220;14.480;2022-08-02T17:36:23;2.28;;;1.63;;
17890;SDS011;9071;48.220;14.480;2022-08-02T17:41:25;1.83;;;1.65;;
17890;SDS011;9071;48.220;14.480;2022-08-02T17:46:29;3.08;;;1.88;;
17890;SDS011;9071;48.220;14.480;2022-08-02T17:51:31;3.58;;;2.00;;
17890;SDS011;9071;48.220;14.480;2022-08-02T17:56:33;2.35;;;1.77;;
17890;SDS011;9071;48.220;14.480;2022-08-02T18:01:37;2.17;;;1.48;;
17890;SDS011;9071;48.220;14.480;2022-08-02T18:06:41;2.45;;;1.70;;
17890;SDS011;9071;48.220;14.480;2022-08-02T18:11:46;2.45;;;1.73;;
17890;SDS011;9071;48.220;14.480;2022-08-02T18:16:49;2.72;;;1.63;;
17890;SDS011;9071;48.220;14.480;2022-08-02T18:21:52;5.55;;;1.65;;
17890;SDS011;9071;48.220;14.480;2022-08-02T18:26:54;2.08;;;1.60;;
17890;SDS011;9071;48.220;14.480;2022-08-02T18:31:58;1.67;;;1.40;;
17890;SDS011;9071;48.220;14.480;2022-08-02T18:37:00;1.60;;;1.50;;
17890;SDS011;9071;48.220;14.480;2022-08-02T18:42:03;1.77;;;1.60;;
17890;SDS011;9071;48.220;14.480;2022-08-02T18:47:06;2.95;;;1.73;;
17890;SDS011;9071;48.220;14.480;2022-08-02T18:52:08;3.15;;;1.67;;
17890;SDS011;9071;48.220;14.480;2022-08-02T18:57:10;3.78;;;1.65;;
17890;SDS011;9071;48.220;14.480;2022-08-02T19:02:14;2.28;;;1.67;;
17890;SDS011;9071;48.220;14.480;2022-08-02T19:07:16;2.22;;;1.60;;
17890;SDS011;9071;48.220;14.480;2022-08-02T19:12:19;2.28;;;1.58;;
17890;SDS011;9071;48.220;14.480;2022-08-02T19:17:22;1.58;;;1.42;;
17890;SDS011;9071;48.220;14.480;2022-08-02T19:22:25;4.85;;;2.17;;
17890;SDS011;9071;48.220;14.480;2022-08-02T19:27:27;4.03;;;2.30;;
17890;SDS011;9071;48.220;14.480;2022-08-02T19:32:31;3.80;;;2.13;;
17890;SDS011;9071;48.220;14.480;2022-08-02T19:37:33;4.38;;;2.05;;
17890;SDS011;9071;48.220;14.480;2022-08-02T19:42:38;7.72;;;2.58;;
17890;SDS011;9071;48.220;14.480;2022-08-02T19:47:41;5.80;;;2.75;;
17890;SDS011;9071;48.220;14.480;2022-08-02T19:52:44;4.60;;;2.70;;
17890;SDS011;9071;48.220;14.480;2022-08-02T19:57:46;6.72;;;3.60;;
17890;SDS011;9071;48.220;14.480;2022-08-02T20:02:50;7.05;;;3.47;;
17890;SDS011;9071;48.220;14.480;2022-08-02T20:07:52;4.30;;;3.08;;
17890;SDS011;9071;48.220;14.480;2022-08-02T20:12:54;4.57;;;3.00;;
17890;SDS011;9071;48.220;14.480;2022-08-02T20:17:57;5.85;;;2.85;;
17890;SDS011;9071;48.220;14.480;2022-08-02T20:23:00;5.63;;;3.97;;
17890;SDS011;9071;48.220;14.480;2022-08-02T20:28:18;4.43;;;3.30;;
17890;SDS011;9071;48.220;14.480;2022-08-02T20:33:22;7.95;;;3.33;;
17890;SDS011;9071;48.220;14.480;2022-08-02T20:38:24;5.05;;;3.25;;
17890;SDS011;9071;48.220;14.480;2022-08-02T20:43:27;6.55;;;3.40;;
17890;SDS011;9071;48.220;14.480;2022-08-02T20:48:31;7.60;;;4.30;;
17890;SDS011;9071;48.220;14.480;2022-08-02T20:53:35;4.97;;;3.72;;
17890;SDS011;9071;48.220;14.480;2022-08-02T20:58:37;7.32;;;3.50;;
17890;SDS011;9071;48.220;14.480;2022-08-02T21:03:40;7.32;;;4.72;;
17890;SDS011;9071;48.220;14.480;2022-08-02T21:08:42;6.80;;;4.07;;
17890;SDS011;9071;48.220;14.480;2022-08-02T21:13:45;9.88;;;4.00;;
17890;SDS011;9071;48.220;14.480;2022-08-02T21:18:48;4.28;;;3.25;;
17890;SDS011;9071;48.220;14.480;2022-08-02T21:23:54;5.60;;;3.53;;
17890;SDS011;9071;48.220;14.480;2022-08-02T21:28:57;5.28;;;3.78;;
17890;SDS011;9071;48.220;14.480;2022-08-02T21:34:01;3.90;;;3.50;;
17890;SDS011;9071;48.220;14.480;2022-08-02T21:39:05;4.47;;;3.38;;
17890;SDS011;9071;48.220;14.480;2022-08-02T21:44:08;5.68;;;3.40;;
17890;SDS011;9071;48.220;14.480;2022-08-02T21:49:11;3.92;;;3.45;;
17890;SDS011;9071;48.220;14.480;2022-08-02T21:54:14;7.47;;;4.38;;
17890;SDS011;9071;48.220;14.480;2022-08-02T21:59:16;6.22;;;4.18;;
17890;SDS011;9071;48.220;14.480;2022-08-02T22:04:20;6.53;;;3.92;;
17890;SDS011;9071;48.220;14.480;2022-08-02T22:09:22;4.82;;;3.95;;
17890;SDS011;9071;48.220;14.480;2022-08-02T22:14:25;7.78;;;3.85;;
17890;SDS011;9071;48.220;14.480;2022-08-02T22:19:29;5.82;;;3.70;;
17890;SDS011;9071;48.220;14.480;2022-08-02T22:24:31;7.15;;;4.93;;
17890;SDS011;9071;48.220;14.480;2022-08-02T22:29:33;6.40;;;4.80;;
17890;SDS011;9071;48.220;14.480;2022-08-02T22:34:37;6.07;;;5.07;;
17890;SDS011;9071;48.220;14.480;2022-08-02T22:39:39;9.98;;;5.35;;
17890;SDS011;9071;48.220;14.480;2022-08-02T22:44:41;9.02;;;5.93;;
17890;SDS011;9071;48.220;14.480;2022-08-02T22:49:44;9.25;;;5.38;;
17890;SDS011;9071;48.220;14.480;2022-08-02T22:54:47;6.72;;;4.65;;
17890;SDS011;9071;48.220;14.480;2022-08-02T22:59:49;8.23;;;4.78;;
17890;SDS011;9071;48.220;14.480;2022-08-02T23:04:53;4.75;;;4.25;;
17890;SDS011;9071;48.220;14.480;2022-08-02T23:09:55;6.15;;;4.55;;
17890;SDS011;9071;48.220;14.480;2022-08-02T23:14:57;6.28;;;4.90;;
17890;SDS011;9071;48.220;14.480;2022-08-02T23:20:01;7.40;;;4.55;;
17890;SDS011;9071;48.220;14.480;2022-08-02T23:25:04;7.50;;;4.85;;
17890;SDS011;9071;48.220;14.480;2022-08-02T23:30:07;5.43;;;4.85;;
17890;SDS011;9071;48.220;14.480;2022-08-02T23:35:11;6.80;;;4.70;;
17890;SDS011;9071;48.220;14.480;2022-08-02T23:40:13;6.85;;;4.68;;
17890;SDS011;9071;48.220;14.480;2022-08-02T23:45:15;6.25;;;5.32;;
17890;SDS011;9071;48.220;14.480;2022-08-02T23:50:19;8.65;;;5.55;;
17890;SDS011;9071;48.220;14.480;2022-08-02T23:55:21;7.60;;;5.47;;
